KLND/LND METAR and TAF weather

Enter ICAO airport designator
Station Type Date Time Source
KLND METAR 2021/01/22 06:53 UTC NOAA

KLND 220653Z AUTO 31003KT 10SM CLR M07/M12 A2991 RMK AO2 SLP158 T10671122 400391067


Station Type Date Time Source
KLND Decoded METAR 2021/01/22 06:53 UTC NOAA

LANDER HUNT FIELD, WY, United States (KLND) 42-49N 108-44W 1694M
Jan 22, 2021 - 01:53 AM EST / 2021.01.22 0653 UTC
Wind: from the NW (310 degrees) at 3 MPH (3 KT):0
Visibility: 10 mile(s):0
Sky conditions: clear
Temperature: 19.9 F (-6.7 C)
Dew Point: 10.0 F (-12.2 C)
Relative Humidity: 64%
Pressure (altimeter): 29.91 in. Hg (1012 hPa)
ob: KLND 220653Z AUTO 31003KT 10SM CLR M07/M12 A2991 RMK AO2 SLP158 T10671122 400391067
cycle: 7

Station Type Date Time Source
KLND TAF 2021/01/22 06:28 UTC NOAA

TAF KLND 220526Z 2206/2306 VRB05KT P6SM SCT100 BKN120

Example: see airport list